Time;durP1;ratioP1;P1;durP2;ratioP2;P2;SDS_P1;SDS_P2;PMS_P1;PMS_P2;Temp;Humidity;BMP_temperature;BMP_pressure;BME280_temperature;BME280_humidity;BME280_pressure;Samples;Min_cycle;Max_cycle;Signal;HPM_P1;HPM_P2
2022/11/21 09:18:03;;;;;;;3.77;1.30;;;7.20;99.90;;;;;;4856029;29;20214;-72
2022/11/21 09:20:31;;;;;;;7.80;1.63;;;7.20;99.90;;;;;;4875945;29;20241;-75
2022/11/21 09:23:03;;;;;;;3.33;1.13;;;7.20;99.90;;;;;;4874043;29;20575;-74
2022/11/21 09:25:29;;;;;;;3.13;1.00;;;7.10;99.90;;;;;;4860950;29;20567;-77
2022/11/21 09:27:59;;;;;;;2.93;1.00;;;7.30;99.90;;;;;;4860692;29;20211;-69
2022/11/21 09:30:27;;;;;;;4.13;0.93;;;7.60;99.90;;;;;;4860407;29;20727;-65
2022/11/21 09:32:54;;;;;;;5.07;0.90;;;7.80;99.90;;;;;;4861146;29;20246;-75
2022/11/21 09:35:20;;;;;;;5.77;1.17;;;7.80;99.90;;;;;;4860204;29;20690;-64
2022/11/21 09:37:47;;;;;;;2.17;0.97;;;7.80;99.90;;;;;;4860602;29;20234;-75
2022/11/21 09:40:16;;;;;;;2.80;0.90;;;7.70;99.90;;;;;;4860635;29;20238;-70
2022/11/21 09:43:06;;;;;;;2.73;1.17;;;7.60;99.90;;;;;;4860317;29;20672;-75
2022/11/21 09:45:37;;;;;;;7.03;1.50;;;7.80;99.90;;;;;;4859987;29;20212;-75
2022/11/21 09:48:09;;;;;;;4.87;1.60;;;7.90;99.90;;;;;;4859849;29;20575;-78
2022/11/21 09:50:39;;;;;;;5.00;1.60;;;8.00;99.90;;;;;;4860763;29;20240;-65
2022/11/21 09:53:11;;;;;;;7.70;1.53;;;7.90;99.90;;;;;;4860323;29;20244;-79
2022/11/21 09:55:44;;;;;;;6.57;1.90;;;8.00;99.90;;;;;;4865559;29;20218;-79
2022/11/21 09:58:23;;;;;;;10.13;3.33;;;8.10;99.90;;;;;;4865307;29;20226;-74
2022/11/21 10:00:52;;;;;;;6.40;1.90;;;8.20;99.90;;;;;;4863998;29;20238;-67
2022/11/21 10:03:21;;;;;;;3.53;1.87;;;8.40;99.90;;;;;;4863735;29;20212;-74
2022/11/21 10:05:52;;;;;;;5.67;1.90;;;8.50;99.90;;;;;;4863823;29;20216;-65
2022/11/21 10:08:28;;;;;;;5.10;2.00;;;8.50;99.90;;;;;;4863878;29;20212;-66
2022/11/21 10:10:59;;;;;;;5.63;2.23;;;8.50;99.90;;;;;;4863846;29;20254;-66
2022/11/21 10:13:37;;;;;;;8.23;2.50;;;8.60;99.90;;;;;;4863478;29;20208;-75
2022/11/21 10:16:13;;;;;;;4.57;2.13;;;8.60;99.90;;;;;;4863689;29;20306;-65
2022/11/21 10:19:05;;;;;;;4.07;1.80;;;8.70;99.90;;;;;;4845121;29;20208;-71
2022/11/21 10:22:07;;;;;;;4.37;1.97;;;8.60;99.90;;;;;;4854271;29;20251;-72
2022/11/21 10:24:43;;;;;;;4.30;2.20;;;8.60;99.90;;;;;;4862132;29;20237;-69
2022/11/21 10:27:16;;;;;;;3.57;2.27;;;8.20;99.90;;;;;;4861699;29;20299;-69
2022/11/21 10:29:49;;;;;;;3.77;2.00;;;7.90;99.90;;;;;;4862135;29;20557;-73
2022/11/21 10:32:23;;;;;;;4.43;2.73;;;7.60;99.90;;;;;;4868249;29;20239;-66
2022/11/21 10:34:52;;;;;;;4.90;2.50;;;7.50;99.90;;;;;;4860580;29;20214;-74
2022/11/21 10:37:29;;;;;;;6.20;2.47;;;7.50;99.90;;;;;;4861973;29;20299;-66
2022/11/21 10:39:59;;;;;;;3.57;2.37;;;7.50;99.90;;;;;;4861276;29;20239;-67
2022/11/21 10:42:34;;;;;;;6.30;2.60;;;7.60;99.90;;;;;;4861324;29;20212;-69
2022/11/21 10:45:17;;;;;;;5.60;2.97;;;7.60;99.90;;;;;;4862842;29;20220;-66
2022/11/21 10:47:47;;;;;;;4.97;2.70;;;7.70;99.90;;;;;;4862306;29;20212;-67
2022/11/21 10:50:40;;;;;;;6.30;2.77;;;7.70;99.90;;;;;;4861981;29;20271;-68
2022/11/21 10:56:04;;;;;;;7.87;2.77;;;8.00;99.90;;;;;;4862585;29;20211;-66
2022/11/21 10:58:44;;;;;;;4.23;2.13;;;8.10;99.90;;;;;;4862433;29;20214;-68
2022/11/21 11:01:23;;;;;;;3.07;2.10;;;8.20;99.90;;;;;;4862461;29;20228;-68
2022/11/21 11:04:07;;;;;;;4.97;2.37;;;8.10;99.90;;;;;;4862494;29;20212;-67
2022/11/21 11:06:34;;;;;;;11.70;2.60;;;8.10;99.90;;;;;;4861454;29;20210;-69
2022/11/21 11:09:01;;;;;;;2.77;1.77;;;8.20;99.90;;;;;;4862087;29;20212;-71
2022/11/21 11:11:28;;;;;;;4.80;1.80;;;8.20;99.90;;;;;;4862232;29;20331;-67
2022/11/21 11:13:57;;;;;;;4.67;1.73;;;8.20;99.90;;;;;;4862406;29;20607;-67
2022/11/21 11:16:26;;;;;;;9.47;2.10;;;8.20;99.90;;;;;;4862233;29;20212;-81
2022/11/21 11:18:58;;;;;;;5.37;1.67;;;8.30;99.90;;;;;;4862214;29;20718;-69
2022/11/21 11:21:28;;;;;;;4.97;1.80;;;8.30;99.90;;;;;;4862213;29;20235;-67
2022/11/21 11:24:06;;;;;;;4.90;1.83;;;8.40;99.90;;;;;;4862603;29;20272;-68
2022/11/21 11:26:33;;;;;;;6.07;1.67;;;8.40;99.90;;;;;;4861921;29;20223;-67
2022/11/21 11:29:09;;;;;;;4.37;1.90;;;8.50;99.90;;;;;;4862019;29;20219;-68
2022/11/21 11:31:43;;;;;;;4.27;1.63;;;8.50;99.90;;;;;;4861915;29;20231;-68
2022/11/21 11:34:13;;;;;;;4.97;1.53;;;8.70;99.90;;;;;;4861758;29;20204;-73
2022/11/21 11:36:54;;;;;;;5.17;1.63;;;8.70;99.90;;;;;;4861802;29;20268;-73
2022/11/21 11:39:33;;;;;;;4.13;1.80;;;8.40;99.90;;;;;;4861859;29;20228;-68
2022/11/21 11:48:38;;;;;;;7.50;1.60;;;8.30;99.90;;;;;;4861418;29;20705;-68
2022/11/21 11:51:14;;;;;;;8.00;2.50;;;8.30;99.90;;;;;;4861493;29;20331;-73
2022/11/21 11:53:46;;;;;;;6.93;2.77;;;8.50;99.90;;;;;;4861877;29;20728;-67
2022/11/21 11:56:17;;;;;;;5.10;1.60;;;8.60;99.90;;;;;;4861716;29;20671;-70
2022/11/21 11:58:48;;;;;;;4.93;1.70;;;8.70;99.90;;;;;;4861509;29;20576;-69
2022/11/21 12:01:19;;;;;;;6.00;1.60;;;8.70;99.90;;;;;;4861025;29;20359;-70
2022/11/21 12:03:54;;;;;;;5.70;1.50;;;8.80;99.90;;;;;;4861669;29;20222;-69
2022/11/21 12:06:24;;;;;;;3.13;1.50;;;8.80;99.90;;;;;;4861310;29;20211;-69
2022/11/21 12:08:58;;;;;;;5.27;1.70;;;8.90;99.90;;;;;;4861288;29;20312;-69
2022/11/21 12:12:07;;;;;;;4.67;1.40;;;9.10;99.90;;;;;;4861104;29;20224;-69
2022/11/21 12:17:49;;;;;;;5.27;1.80;;;9.40;99.90;;;;;;4861016;29;20287;-68
2022/11/21 12:20:20;;;;;;;7.23;1.50;;;9.50;99.90;;;;;;4861442;29;20228;-68
2022/11/21 12:22:49;;;;;;;2.53;1.40;;;9.50;99.90;;;;;;4861376;29;20258;-69
2022/11/21 12:25:21;;;;;;;4.73;1.33;;;9.70;99.90;;;;;;4861220;29;20212;-68
2022/11/21 12:27:54;;;;;;;2.90;1.40;;;9.70;99.90;;;;;;4860985;29;20212;-68
2022/11/21 12:30:35;;;;;;;5.03;1.30;;;9.50;99.90;;;;;;4860632;29;20263;-69
2022/11/21 12:33:05;;;;;;;7.03;1.77;;;9.50;99.90;;;;;;4861045;29;20235;-68
2022/11/21 12:35:45;;;;;;;3.10;1.63;;;9.50;99.90;;;;;;4861227;29;20240;-70
2022/11/21 12:38:27;;;;;;;8.80;1.70;;;9.50;99.90;;;;;;4861032;29;20207;-70
2022/11/21 12:44:02;;;;;;;3.37;1.10;;;9.40;99.90;;;;;;4860691;29;20212;-69
2022/11/21 12:46:38;;;;;;;12.60;1.47;;;9.40;99.90;;;;;;4860724;29;20216;-68
2022/11/21 12:55:21;;;;;;;9.10;1.63;;;9.50;99.90;;;;;;4861131;29;20268;-74
2022/11/21 12:58:12;;;;;;;6.37;1.20;;;9.60;99.90;;;;;;4859138;29;20216;-72
2022/11/21 13:01:04;;;;;;;3.77;1.13;;;9.60;99.90;;;;;;4859705;29;20236;-76
2022/11/21 13:03:54;;;;;;;3.17;1.10;;;9.80;99.90;;;;;;4860787;29;20208;-69
2022/11/21 13:06:24;;;;;;;5.80;1.07;;;9.90;99.90;;;;;;4859455;29;20215;-73
2022/11/21 13:08:54;;;;;;;7.97;1.50;;;9.90;99.90;;;;;;4860460;29;20659;-72
2022/11/21 13:14:19;;;;;;;1.97;1.03;;;9.90;99.90;;;;;;4860175;29;20226;-69
2022/11/21 13:16:53;;;;;;;4.57;1.63;;;9.80;99.90;;;;;;4860081;29;20667;-68
2022/11/21 13:19:25;;;;;;;3.60;1.43;;;9.70;99.90;;;;;;4860401;29;20208;-72
2022/11/21 13:21:53;;;;;;;3.63;1.40;;;9.80;99.90;;;;;;4860531;29;20216;-73
2022/11/21 13:24:55;;;;;;;5.47;1.40;;;9.80;99.90;;;;;;4860336;29;20208;-71
2022/11/21 13:27:31;;;;;;;2.77;1.07;;;9.80;99.90;;;;;;4859668;29;20613;-71
2022/11/21 13:30:20;;;;;;;2.33;1.10;;;9.80;99.90;;;;;;4861685;29;20242;-74
2022/11/21 13:32:49;;;;;;;2.70;1.27;;;9.80;99.90;;;;;;4863973;29;20247;-75
2022/11/21 13:36:03;;;;;;;3.03;1.23;;;9.70;99.90;;;;;;4864071;29;20218;-71
2022/11/21 13:38:31;;;;;;;4.43;1.17;;;9.70;99.90;;;;;;4864108;29;20264;-68
2022/11/21 13:43:43;;;;;;;3.10;1.33;;;9.80;99.90;;;;;;4863663;29;20210;-68
2022/11/21 13:46:31;;;;;;;3.77;1.20;;;9.90;99.90;;;;;;4864019;29;20215;-71
2022/11/21 13:49:07;;;;;;;3.67;1.47;;;9.80;99.90;;;;;;4845242;29;20228;-67
2022/11/21 13:51:52;;;;;;;3.00;1.00;;;9.80;99.90;;;;;;4861870;29;20216;-68
2022/11/21 13:54:48;;;;;;;3.67;1.27;;;9.70;99.90;;;;;;4866046;29;20238;-67
2022/11/21 13:57:38;;;;;;;2.23;1.40;;;9.70;99.90;;;;;;4865627;29;20552;-66
2022/11/21 14:00:33;;;;;;;4.27;1.27;;;9.60;99.90;;;;;;4865807;29;20323;-70
2022/11/21 14:03:53;;;;;;;1.57;0.93;;;9.60;99.90;;;;;;4862548;29;20216;-67
2022/11/21 14:06:34;;;;;;;6.30;1.33;;;9.70;99.90;;;;;;4863336;29;20218;-71
2022/11/21 14:09:15;;;;;;;2.00;0.80;;;9.60;99.90;;;;;;4863729;29;20309;-71
2022/11/21 14:11:48;;;;;;;8.03;0.90;;;9.40;99.90;;;;;;4863459;29;20694;-71
2022/11/21 14:14:25;;;;;;;4.17;1.00;;;9.40;99.90;;;;;;4863148;29;20261;-74
2022/11/21 14:16:59;;;;;;;2.33;0.60;;;9.40;99.90;;;;;;4863298;29;20218;-68
2022/11/21 14:19:30;;;;;;;1.70;0.70;;;9.50;99.90;;;;;;4863425;29;20222;-71
2022/11/21 14:21:57;;;;;;;3.17;0.60;;;9.60;99.90;;;;;;4863296;29;20216;-73
2022/11/21 14:24:24;;;;;;;2.30;0.70;;;9.60;99.90;;;;;;4863386;29;20662;-66
2022/11/21 14:26:53;;;;;;;2.87;0.53;;;9.50;99.90;;;;;;4862858;29;20209;-67
2022/11/21 14:29:25;;;;;;;6.10;0.70;;;9.50;99.90;;;;;;4862607;29;20220;-67
2022/11/21 14:31:53;;;;;;;2.27;0.63;;;9.50;99.90;;;;;;4863051;29;20298;-69
2022/11/21 14:34:28;;;;;;;1.53;0.70;;;9.50;99.90;;;;;;4863040;29;20247;-67
2022/11/21 14:36:59;;;;;;;1.10;0.50;;;9.40;99.90;;;;;;4862641;29;20686;-66
2022/11/21 14:39:28;;;;;;;2.90;0.70;;;9.40;99.90;;;;;;4862687;29;20230;-67
2022/11/21 14:41:57;;;;;;;5.43;1.17;;;9.30;99.90;;;;;;4861463;29;20208;-67
2022/11/21 14:44:25;;;;;;;4.87;0.87;;;9.30;99.90;;;;;;4862684;29;20269;-72
2022/11/21 14:47:05;;;;;;;1.00;0.50;;;9.30;99.90;;;;;;4862680;29;20204;-72
2022/11/21 14:49:33;;;;;;;3.90;0.97;;;9.30;99.90;;;;;;4862882;29;20235;-67
2022/11/21 14:52:14;;;;;;;4.53;0.83;;;9.30;99.90;;;;;;4862569;29;20315;-71
2022/11/21 14:54:47;;;;;;;1.70;0.63;;;9.30;99.90;;;;;;4863086;29;20311;-72
2022/11/21 14:57:21;;;;;;;2.77;0.73;;;9.30;99.90;;;;;;4863016;29;20211;-67
2022/11/21 14:59:48;;;;;;;4.40;1.00;;;9.30;99.90;;;;;;4862773;29;20671;-73
2022/11/21 15:02:17;;;;;;;2.83;0.80;;;9.30;99.90;;;;;;4862784;29;20216;-70
2022/11/21 15:04:48;;;;;;;2.00;0.80;;;9.40;99.90;;;;;;4862313;29;20679;-69
2022/11/21 15:07:22;;;;;;;3.50;1.30;;;9.30;99.90;;;;;;4862768;29;20220;-70
2022/11/21 15:09:50;;;;;;;2.10;0.80;;;9.40;99.90;;;;;;4863190;29;20318;-70
2022/11/21 15:12:23;;;;;;;5.30;1.03;;;9.40;99.90;;;;;;4862275;29;20311;-70
2022/11/21 15:14:52;;;;;;;3.07;0.83;;;9.40;99.90;;;;;;4862254;29;20232;-69
2022/11/21 15:17:21;;;;;;;4.07;1.00;;;9.30;99.90;;;;;;4861719;29;20215;-70
2022/11/21 15:20:04;;;;;;;4.80;1.20;;;9.20;99.90;;;;;;4862073;29;20239;-70
2022/11/21 15:22:34;;;;;;;3.23;0.90;;;9.20;99.90;;;;;;4861896;29;20260;-70
2022/11/21 15:25:07;;;;;;;1.53;0.93;;;9.30;99.90;;;;;;4862226;29;20216;-70
2022/11/21 15:27:35;;;;;;;4.63;1.30;;;9.30;99.90;;;;;;4861597;29;20697;-70
2022/11/21 15:30:04;;;;;;;5.17;0.80;;;9.30;99.90;;;;;;4861757;29;20228;-69
2022/11/21 15:32:31;;;;;;;4.17;0.80;;;9.20;99.90;;;;;;4862058;29;20218;-69
2022/11/21 15:35:00;;;;;;;3.13;1.13;;;9.10;99.90;;;;;;4861731;29;20311;-69
2022/11/21 15:37:27;;;;;;;2.87;0.90;;;9.10;99.90;;;;;;4862030;29;20218;-70
2022/11/21 15:39:54;;;;;;;4.73;0.90;;;9.00;99.90;;;;;;4862021;29;20236;-70
2022/11/21 15:42:36;;;;;;;2.80;0.70;;;8.90;99.90;;;;;;4861890;29;20218;-70
2022/11/21 15:45:21;;;;;;;5.13;0.90;;;8.90;99.90;;;;;;4861932;29;20617;-69
2022/11/21 15:47:49;;;;;;;4.83;0.70;;;8.90;99.90;;;;;;4862139;29;20557;-70
2022/11/21 15:50:17;;;;;;;1.87;0.80;;;9.00;99.90;;;;;;4861733;29;20610;-69
2022/11/21 15:52:45;;;;;;;3.13;0.67;;;9.10;99.90;;;;;;4861213;29;20240;-69
2022/11/21 15:55:17;;;;;;;5.87;0.80;;;9.10;99.90;;;;;;4861472;29;20664;-70
2022/11/21 15:57:44;;;;;;;1.93;0.60;;;8.90;99.90;;;;;;4861923;29;20215;-69
2022/11/21 16:00:12;;;;;;;4.53;0.80;;;8.80;99.90;;;;;;4861316;29;20236;-69
2022/11/21 16:02:38;;;;;;;3.67;0.90;;;8.90;99.90;;;;;;4861409;29;20223;-69
2022/11/21 16:05:06;;;;;;;2.93;0.90;;;9.00;99.90;;;;;;4861565;29;20216;-68
2022/11/21 16:07:34;;;;;;;3.23;0.90;;;8.90;99.90;;;;;;4861897;29;20216;-68
2022/11/21 16:10:00;;;;;;;6.53;0.97;;;8.90;99.90;;;;;;4861545;29;20236;-69
2022/11/21 16:12:27;;;;;;;5.40;1.00;;;8.90;99.90;;;;;;4861864;29;20226;-69
2022/11/21 16:14:54;;;;;;;1.90;0.57;;;8.90;99.90;;;;;;4861189;29;20242;-69
2022/11/21 16:17:21;;;;;;;2.40;0.90;;;8.90;99.90;;;;;;4860966;29;20208;-69
2022/11/21 16:19:47;;;;;;;5.83;0.80;;;8.90;99.90;;;;;;4860651;29;20731;-69
2022/11/21 16:22:15;;;;;;;2.80;1.00;;;8.80;99.90;;;;;;4860797;29;20668;-69
2022/11/21 16:24:43;;;;;;;5.13;1.10;;;8.90;99.90;;;;;;4860897;29;20260;-69
2022/11/21 16:27:10;;;;;;;3.17;0.70;;;8.90;99.90;;;;;;4860972;29;20230;-69
2022/11/21 16:29:37;;;;;;;1.77;0.80;;;8.80;99.90;;;;;;4860683;29;20231;-69
2022/11/21 16:32:04;;;;;;;4.33;1.00;;;8.80;99.90;;;;;;4860910;29;20221;-68
2022/11/21 16:34:31;;;;;;;3.23;0.70;;;8.70;99.90;;;;;;4861106;29;20242;-69
2022/11/21 16:36:58;;;;;;;4.90;1.20;;;8.80;99.90;;;;;;4860931;29;20216;-69
2022/11/21 16:39:25;;;;;;;3.30;0.93;;;8.80;99.90;;;;;;4860941;29;20218;-69
2022/11/21 16:41:53;;;;;;;2.53;0.70;;;8.80;99.90;;;;;;4860993;29;20214;-68
2022/11/21 16:44:19;;;;;;;3.47;1.00;;;8.80;99.90;;;;;;4860751;29;20215;-68
2022/11/21 16:46:47;;;;;;;4.23;1.20;;;8.70;99.90;;;;;;4860624;29;20216;-69
2022/11/21 16:49:15;;;;;;;3.77;1.20;;;8.60;99.90;;;;;;4860699;29;20215;-69
2022/11/21 16:51:42;;;;;;;3.33;1.30;;;8.50;99.90;;;;;;4860366;29;20215;-70
2022/11/21 16:54:08;;;;;;;4.93;1.40;;;8.50;99.90;;;;;;4860417;29;20251;-69
2022/11/21 16:56:35;;;;;;;4.13;1.33;;;8.50;99.90;;;;;;4856703;29;20214;-69
2022/11/21 16:59:03;;;;;;;11.20;1.30;;;8.50;99.90;;;;;;4859881;29;20216;-69
2022/11/21 17:01:30;;;;;;;2.27;1.07;;;8.40;99.90;;;;;;4860123;29;20231;-71
2022/11/21 17:03:57;;;;;;;2.83;0.90;;;8.30;99.90;;;;;;4859357;29;20215;-70
2022/11/21 17:07:26;;;;;;;3.43;1.20;;;8.20;99.90;;;;;;5076828;28;20562;-74
2022/11/21 17:09:53;;;;;;;5.80;1.33;;;8.10;99.90;;;;;;5069965;28;20224;-72
2022/11/21 17:12:20;;;;;;;2.40;1.10;;;8.10;99.90;;;;;;5069798;28;20199;-69
2022/11/21 17:14:47;;;;;;;7.83;1.13;;;8.20;99.90;;;;;;5064060;28;20354;-70
2022/11/21 17:17:14;;;;;;;3.53;1.43;;;8.10;99.90;;;;;;5067602;28;20214;-69
2022/11/21 17:19:41;;;;;;;5.10;1.37;;;8.10;99.90;;;;;;5068325;28;20230;-71
2022/11/21 17:22:07;;;;;;;4.67;1.57;;;8.10;99.90;;;;;;5067881;28;20312;-69
2022/11/21 17:24:36;;;;;;;10.33;1.07;;;8.00;99.90;;;;;;5068705;28;20453;-71
2022/11/21 17:27:03;;;;;;;5.83;1.20;;;8.00;99.90;;;;;;5067665;28;20701;-69
2022/11/21 17:29:30;;;;;;;10.63;1.20;;;8.10;99.90;;;;;;5067531;28;20318;-70
2022/11/21 17:31:57;;;;;;;5.07;1.13;;;8.10;99.90;;;;;;5068204;28;20203;-69
2022/11/21 17:34:24;;;;;;;6.30;1.03;;;8.00;99.90;;;;;;5068050;28;20206;-71
2022/11/21 17:36:51;;;;;;;3.90;1.90;;;8.00;99.90;;;;;;5066750;28;20294;-74
2022/11/21 17:39:18;;;;;;;4.53;1.40;;;8.00;99.90;;;;;;5067521;28;20210;-71
2022/11/21 17:41:46;;;;;;;7.13;2.00;;;7.90;99.90;;;;;;5067788;28;20203;-70
2022/11/21 17:44:14;;;;;;;4.67;1.30;;;7.90;99.90;;;;;;5066738;28;20522;-71
2022/11/21 17:46:41;;;;;;;4.33;1.00;;;7.90;99.90;;;;;;5067384;28;20235;-71
2022/11/21 17:49:13;;;;;;;2.20;0.80;;;7.90;99.90;;;;;;5067472;28;20230;-70
2022/11/21 17:51:40;;;;;;;4.77;0.80;;;7.80;99.90;;;;;;5067328;28;20199;-70
2022/11/21 17:54:08;;;;;;;7.23;2.27;;;7.70;99.90;;;;;;5067282;28;20204;-69
2022/11/21 17:56:37;;;;;;;19.17;5.77;;;7.70;99.90;;;;;;5067350;28;20214;-71
2022/11/21 17:59:07;;;;;;;4.00;1.63;;;7.70;99.90;;;;;;5066202;28;20219;-70
2022/11/21 18:01:34;;;;;;;7.63;2.33;;;7.70;99.90;;;;;;5067612;28;20314;-70
2022/11/21 18:04:04;;;;;;;7.23;1.30;;;7.80;99.90;;;;;;5067547;28;20646;-70
2022/11/21 18:06:34;;;;;;;3.90;0.87;;;7.80;99.90;;;;;;5066095;28;20235;-72
2022/11/21 18:09:01;;;;;;;10.07;2.10;;;7.70;99.90;;;;;;5068350;28;20204;-70
2022/11/21 18:11:29;;;;;;;6.67;1.10;;;7.70;99.90;;;;;;5067768;28;20231;-70
2022/11/21 18:13:56;;;;;;;4.20;1.03;;;7.70;99.90;;;;;;5068260;28;20216;-69
2022/11/21 18:16:27;;;;;;;3.73;1.00;;;7.70;99.90;;;;;;5068054;28;20203;-69
2022/11/21 18:18:55;;;;;;;3.40;1.30;;;7.70;99.90;;;;;;5054780;28;20299;-69
2022/11/21 18:21:23;;;;;;;9.47;2.80;;;7.70;99.90;;;;;;5054487;28;20224;-70
2022/11/21 18:23:51;;;;;;;3.77;1.50;;;7.70;99.90;;;;;;5054434;28;20215;-70
2022/11/21 18:26:20;;;;;;;6.93;1.00;;;7.80;99.90;;;;;;5054311;28;20228;-71
2022/11/21 18:28:48;;;;;;;5.00;1.10;;;7.70;99.90;;;;;;5055360;28;20236;-71
2022/11/21 18:31:17;;;;;;;3.97;0.80;;;7.70;99.90;;;;;;5055272;28;20232;-72
2022/11/21 18:33:49;;;;;;;5.90;1.30;;;7.70;99.90;;;;;;5055303;28;20204;-72
2022/11/21 18:36:16;;;;;;;4.03;2.07;;;7.70;99.90;;;;;;5055230;28;20669;-70
2022/11/21 18:38:44;;;;;;;9.00;1.47;;;7.70;99.90;;;;;;5055077;28;20204;-73
2022/11/21 18:41:13;;;;;;;4.23;1.00;;;7.70;99.90;;;;;;5054868;28;20251;-73
2022/11/21 18:43:40;;;;;;;5.67;2.17;;;7.80;99.90;;;;;;5055009;28;20230;-72
2022/11/21 18:46:09;;;;;;;6.27;1.30;;;7.70;99.90;;;;;;5054795;28;20714;-71
2022/11/21 18:48:36;;;;;;;7.47;1.00;;;7.70;99.90;;;;;;5054915;28;20552;-72
2022/11/21 18:51:05;;;;;;;5.83;1.10;;;7.80;99.90;;;;;;5054597;28;20694;-72
2022/11/21 18:53:32;;;;;;;3.53;1.20;;;7.70;99.90;;;;;;5054993;28;20208;-72
2022/11/21 18:56:03;;;;;;;3.87;1.20;;;7.70;99.90;;;;;;5054605;28;20216;-71
2022/11/21 18:58:33;;;;;;;4.63;1.40;;;7.80;99.90;;;;;;5054672;28;20262;-71
2022/11/21 19:01:00;;;;;;;2.10;0.90;;;7.70;99.90;;;;;;5054505;28;20240;-72
2022/11/21 19:03:27;;;;;;;6.37;1.20;;;7.80;99.90;;;;;;5054807;28;20208;-73
2022/11/21 19:05:54;;;;;;;3.80;1.30;;;7.80;99.90;;;;;;5054651;28;20238;-72
2022/11/21 19:08:22;;;;;;;4.13;1.50;;;7.80;99.90;;;;;;5057116;28;20208;-72
2022/11/21 19:10:49;;;;;;;6.30;1.00;;;7.90;99.90;;;;;;5057691;28;20314;-73
2022/11/21 19:13:16;;;;;;;5.90;1.50;;;7.80;99.90;;;;;;5055960;28;20211;-72
2022/11/21 19:15:43;;;;;;;3.80;0.90;;;7.80;99.90;;;;;;5053974;28;20204;-72
2022/11/21 19:18:10;;;;;;;2.50;0.90;;;7.70;99.90;;;;;;5053776;28;20574;-72
2022/11/21 19:20:38;;;;;;;3.83;1.23;;;7.60;99.90;;;;;;5053930;28;20224;-72
2022/11/21 19:23:05;;;;;;;7.13;2.67;;;7.60;99.90;;;;;;5053651;28;20218;-72
2022/11/21 19:25:35;;;;;;;3.43;1.20;;;7.50;99.90;;;;;;5054269;28;20201;-72
2022/11/21 19:28:02;;;;;;;7.10;2.40;;;7.60;99.90;;;;;;5052956;28;20713;-73
2022/11/21 19:30:29;;;;;;;9.27;1.87;;;7.60;99.90;;;;;;5052440;28;20234;-72
2022/11/21 19:32:57;;;;;;;4.40;1.43;;;7.50;99.90;;;;;;5053808;28;20237;-73
2022/11/21 19:35:24;;;;;;;3.57;1.13;;;7.50;99.90;;;;;;5053473;28;20214;-73
2022/11/21 19:37:51;;;;;;;28.27;7.93;;;7.60;99.90;;;;;;5053539;28;20212;-73
2022/11/21 19:40:18;;;;;;;14.70;4.57;;;7.60;99.90;;;;;;5053154;28;20228;-72
2022/11/21 19:42:46;;;;;;;17.03;5.30;;;7.60;99.90;;;;;;5051469;28;20675;-73
2022/11/21 19:45:13;;;;;;;10.33;4.53;;;7.70;99.90;;;;;;5042771;28;20203;-73
2022/11/21 19:47:39;;;;;;;8.93;1.73;;;7.80;99.90;;;;;;5041565;28;20233;-72
2022/11/21 19:50:07;;;;;;;6.77;1.43;;;7.70;99.90;;;;;;5042868;28;20709;-72
2022/11/21 19:52:34;;;;;;;17.67;6.17;;;7.70;99.90;;;;;;5043339;28;20205;-72
2022/11/21 19:55:01;;;;;;;13.97;4.80;;;7.70;99.90;;;;;;5041481;28;20663;-72
2022/11/21 19:57:27;;;;;;;5.07;2.10;;;7.80;99.90;;;;;;5043555;28;20283;-72
2022/11/21 19:59:55;;;;;;;8.27;1.90;;;7.90;99.90;;;;;;5043412;28;20219;-72
2022/11/21 20:02:22;;;;;;;8.10;1.27;;;7.80;99.90;;;;;;5041842;28;20204;-72
2022/11/21 20:04:49;;;;;;;4.87;1.20;;;7.80;99.90;;;;;;5042978;28;20211;-72
2022/11/21 20:07:16;;;;;;;4.37;1.47;;;7.90;99.90;;;;;;5043180;28;20698;-72
2022/11/21 20:09:42;;;;;;;8.03;1.30;;;7.80;99.90;;;;;;5041713;28;20223;-74
2022/11/21 20:12:09;;;;;;;3.47;1.10;;;7.80;99.90;;;;;;5043024;28;20294;-72
2022/11/21 20:14:36;;;;;;;1.87;1.07;;;7.80;99.90;;;;;;5043411;28;20562;-72
2022/11/21 20:17:04;;;;;;;3.03;1.30;;;7.80;99.90;;;;;;5043297;28;20200;-72
2022/11/21 20:19:31;;;;;;;1.20;0.90;;;7.80;99.90;;;;;;5042589;28;20717;-72
2022/11/21 20:21:58;;;;;;;2.43;1.20;;;7.80;99.90;;;;;;5041789;28;20207;-72
2022/11/21 20:24:25;;;;;;;4.57;1.50;;;7.80;99.90;;;;;;5041295;28;20297;-72
2022/11/21 20:26:52;;;;;;;6.07;1.90;;;7.80;99.90;;;;;;5042113;28;20310;-72
2022/11/21 20:29:19;;;;;;;4.03;2.23;;;7.90;99.90;;;;;;5051277;28;21213;-72
2022/11/21 20:31:47;;;;;;;4.57;1.27;;;7.80;99.90;;;;;;5052621;28;20573;-73
2022/11/21 20:34:15;;;;;;;2.00;1.03;;;7.70;99.90;;;;;;5052715;28;20200;-73
2022/11/21 20:36:43;;;;;;;4.83;1.27;;;7.70;99.90;;;;;;5052395;28;20661;-71
2022/11/21 20:39:14;;;;;;;2.60;1.00;;;7.70;99.90;;;;;;5052692;28;20243;-72
2022/11/21 20:41:41;;;;;;;5.67;1.90;;;7.70;99.90;;;;;;5052451;28;20204;-72
2022/11/21 20:44:12;;;;;;;5.43;1.50;;;7.70;99.90;;;;;;5052483;28;20605;-72
2022/11/21 20:46:38;;;;;;;3.77;1.43;;;7.70;99.90;;;;;;5052590;28;20581;-73
2022/11/21 20:49:05;;;;;;;3.70;0.90;;;7.80;99.90;;;;;;5052625;28;20200;-72
2022/11/21 20:51:33;;;;;;;1.97;0.87;;;7.70;99.90;;;;;;5052612;28;20220;-71
2022/11/21 20:54:00;;;;;;;4.30;0.90;;;7.70;99.90;;;;;;5052931;28;20211;-72
2022/11/21 20:56:27;;;;;;;1.27;0.80;;;7.70;99.90;;;;;;5052549;28;20712;-72
2022/11/21 20:58:54;;;;;;;1.77;0.90;;;7.70;99.90;;;;;;5052413;28;20256;-72
2022/11/21 21:01:22;;;;;;;2.20;0.87;;;7.70;99.90;;;;;;5052938;28;20224;-73
2022/11/21 21:03:49;;;;;;;2.13;1.10;;;7.70;99.90;;;;;;5052883;28;20214;-72
2022/11/21 21:06:17;;;;;;;2.50;1.20;;;7.70;99.90;;;;;;5052776;28;20211;-73
2022/11/21 21:08:47;;;;;;;5.30;0.93;;;7.70;99.90;;;;;;5052704;28;20562;-71
2022/11/21 21:11:16;;;;;;;5.60;1.20;;;7.80;99.90;;;;;;5052975;28;20228;-71
2022/11/21 21:13:45;;;;;;;1.73;0.97;;;7.90;99.90;;;;;;5052210;28;20677;-72
2022/11/21 21:16:14;;;;;;;2.80;0.90;;;7.80;99.90;;;;;;5052605;28;20299;-73
2022/11/21 21:18:42;;;;;;;0.97;0.70;;;7.80;99.90;;;;;;5052521;28;20204;-71
2022/11/21 21:21:10;;;;;;;1.70;1.00;;;7.80;99.90;;;;;;5052344;28;20230;-71
2022/11/21 21:23:38;;;;;;;1.40;0.83;;;7.80;99.90;;;;;;5052319;28;20210;-71
2022/11/21 21:26:10;;;;;;;1.77;0.93;;;7.80;99.90;;;;;;5052456;28;20210;-72
2022/11/21 21:28:37;;;;;;;0.67;0.50;;;7.80;99.90;;;;;;5052696;28;20238;-72
2022/11/21 21:31:08;;;;;;;1.47;0.97;;;7.80;99.90;;;;;;5052491;28;20220;-73
2022/11/21 21:33:35;;;;;;;4.03;1.23;;;7.70;99.90;;;;;;5052400;28;20200;-72
2022/11/21 21:36:07;;;;;;;1.67;1.00;;;7.70;99.90;;;;;;5053694;28;20211;-72
2022/11/21 21:38:35;;;;;;;2.77;1.00;;;7.80;99.90;;;;;;5052975;28;20204;-73
2022/11/21 21:41:02;;;;;;;2.17;1.13;;;7.70;99.90;;;;;;5052479;28;20224;-71
2022/11/21 21:43:30;;;;;;;1.13;0.90;;;7.80;99.90;;;;;;5052236;28;20708;-72
2022/11/21 21:46:05;;;;;;;6.33;1.30;;;7.80;99.90;;;;;;5052548;28;20651;-72
2022/11/21 21:48:32;;;;;;;0.90;0.80;;;7.80;99.90;;;;;;5053537;28;20231;-72
2022/11/21 21:51:05;;;;;;;2.47;1.00;;;7.80;99.90;;;;;;5053471;28;20691;-75
2022/11/21 21:53:36;;;;;;;4.07;2.50;;;7.80;99.90;;;;;;5055363;28;20204;-72
2022/11/21 21:56:03;;;;;;;5.83;2.90;;;7.80;99.90;;;;;;5055980;28;20208;-73
2022/11/21 21:58:33;;;;;;;4.27;2.43;;;7.80;99.90;;;;;;5055040;28;20230;-72
2022/11/21 22:01:03;;;;;;;5.30;2.10;;;7.70;99.90;;;;;;5055319;28;20302;-72
2022/11/21 22:03:30;;;;;;;2.80;1.80;;;7.70;99.90;;;;;;5055875;28;20204;-72
2022/11/21 22:06:01;;;;;;;2.83;1.10;;;7.70;99.90;;;;;;5055843;28;20219;-72
2022/11/21 22:08:30;;;;;;;2.60;1.00;;;7.60;99.90;;;;;;5055981;28;20243;-71
2022/11/21 22:11:01;;;;;;;2.13;0.93;;;7.60;99.90;;;;;;5055631;28;20310;-71
2022/11/21 22:13:28;;;;;;;2.27;1.00;;;7.50;99.90;;;;;;5055652;28;20204;-72
2022/11/21 22:15:57;;;;;;;1.20;0.70;;;7.60;99.90;;;;;;5055582;28;20204;-72
2022/11/21 22:18:24;;;;;;;5.80;0.93;;;7.60;99.90;;;;;;5055644;28;20784;-72
2022/11/21 22:20:51;;;;;;;1.53;0.87;;;7.50;99.90;;;;;;5055487;28;20238;-71
2022/11/21 22:23:17;;;;;;;2.63;1.30;;;7.40;99.90;;;;;;5055133;28;20211;-72
2022/11/21 22:25:44;;;;;;;7.53;1.50;;;7.30;99.90;;;;;;5055573;28;20211;-72
2022/11/21 22:28:11;;;;;;;3.47;1.13;;;7.30;99.90;;;;;;5055216;28;20231;-72
2022/11/21 22:30:38;;;;;;;0.80;0.53;;;7.30;99.90;;;;;;5055428;28;20645;-72
2022/11/21 22:33:06;;;;;;;4.07;1.40;;;7.30;99.90;;;;;;5055403;28;20200;-72
2022/11/21 22:35:34;;;;;;;2.60;1.10;;;7.30;99.90;;;;;;5055078;28;20562;-73
2022/11/21 22:38:01;;;;;;;6.07;1.73;;;7.30;99.90;;;;;;5042789;28;20204;-70
